Portada
METAR-TAF:

METAR-TAF

Aeropuertos :

Gwadar, Pakistán

latitud: 25-13-59N, longitud: 062-19-46E, altitud: 29 m

METAR: falta

Hora: 21:51 (16:51 UTC)

Pronóstico

El informe se hizo hace 7 horas y 21 minutos, a las 09:30 UTC
Pronóstico válido del 17 a las 12 UTC al 18 a las 12 UTC
Viento 7 kt del suroeste
Visibilidad: 5000 m
calima
Evolucionando progresivamente
del 17 a las 18 UTC al 17 a las 20 UTC
Viento 3 kt con dirección variable
Visibilidad: 3000 m
calima
Temporalmente
del 18 a las 00 UTC al 18 a las 04 UTC
Viento 3 kt con dirección variable
Visibilidad: 1500 m
neblina
Evolucionando progresivamente
del 18 a las 07 UTC al 18 a las 09 UTC
Viento 8 kt del oeste-suroeste
Visibilidad: 6000 m

TAF: OPGD 170930Z 1712/1812 22007KT 5000 HZ NSC BECMG 1718/1720 VRB03KT 3000 HZ NSC TEMPO 1800/1804 VRB03KT 1500 BR NSC BECMG 1807/1809 24008KT 6000 NSC

Observaciones y pronósticos meteorológicos de más de 4000 aeropuertos (mensajes METAR y TAF).

Los puntos amarillos y rojos representan las estaciones disponibles.

Ponga el ratón en el punto deseado para ver el nombre de la estación.

Haga clic para ver las observaciones y los pronósticos meteorológicos.

Para cambiar el mapa : haga clic en los botones verdes con una cruz de color negro para hacer un zoom, en el botón verde con un guión para alejar o en las flechas verdes para mapas adyacentes.


METAR-TAF: